Airfield :
LOGIN :

Register | Disclaimer

   EN    FR    IT 

 










Legend :    VFR   Marginal VFR   IFR   Intensive IFR   Very Intensive IFR
Visi :
Ceiling :
>= 8 km
>= 3000ft
5 to 8 km
1000 to 3000 ft
1500m to 5 km
500 to 1000 ft
800 to 1500m
200 to 500 ft
< 800m
< 200 ft
Symbols :   Thunderstorms  Fog  Heavy snow  Heavy precipitations  Wind > 20 kt
SIGMETs :     Misc.  Thunderstorms  Icing  Turbulence  Mountain Waves  Volcanic Ashes






- Airport Elevation : 121 ft
- IATA code : HUY


EGNJ - Humberside

CURRENT METAR :
  • 171220Z 36014KT 9999 -SHRA FEW018 BKN032 09/02 Q1014

EXPIRED METARs :
  • 171150Z 34017KT 9999 VCSH FEW026 SCT033 BKN038 09/02 Q1014
  • 171120Z 31016KT 9999 SCT035 BKN046 10/01 Q1014
  • 171050Z 31013KT 9999 SCT035 BKN046 10/00 Q1014
  • 171020Z 31013KT 9999 SCT032 10/00 Q1014
  • 170950Z 30014KT 9999 SCT032 09/00 Q1014
  • 170920Z 32015KT 9999 FEW028 09/00 Q1014
  • 170850Z 31012KT 9999 FEW028 08/01 Q1014
  • 170820Z 30014KT 9999 FEW020 07/01 Q1014
  • 170750Z AUTO 30014KT 9999 NCD 07/01 Q1014

TAF TAF EGNJ
Valid from the 17 at 12:00 until the 17 at 21:00 UTC


171101Z 1712/1721 31012KT 9999 SCT035
TEMPO 1712/1718 33015G25KT 7000 SHRA
PROB30
TEMPO 1712/1718 4000 +SHRA BKN014 BKN025CB
BECMG 1718/1721 01010KT
PROB40
TEMPO 1718/1721 7000 SHRA
ATIS : +44 1652 682 020



MET'MAP, your aeronautical weather chart ! - Copyright ORBIFLY December 2007 - Disclaimer

ORBIFLY MET'MAP TEAM :

Programming & Development : Alexandra Zaïnal
Original concept : Baudouin d'Aumeries
Technical & hardware support : Manuel Goepfert
Assistance : Marc-Olivier Méhu




SOURCES & CREDITS :

   NOAA